LFPB METAR and TAF | Updated Today

LFPB METAR

Paris-Le Bourget Airport

Observation time: 27 min. ago

LFPB 062030Z AUTO 36004KT CAVOK 11/08 Q1030 NOSIG

Need help? Read our tutorial on how to read METARs or read the parsed version below.

Paris-Le Bourget Airport (LFPB) METAR

  • Weather conditions on Thu, 06 Oct 2022 20:30:00 +0000 (27 min. ago):
  • Present conditions: Dry
  • Clouds: Clear skies
  • Visibility: Greater than 10 km
  • Wind: 360 degrees at 4 knots
  • Temperature: 11 celsius
  • Dew point: 8 celsius
  • Pressure: 1030 millibars
  • Remarks: None


Useful to know...